Brighton, MI (48116)

4:39 PM EST on February 11, 2016 (GMT -0500)
Fonda Lake | | Change Station
CLOSE
Current Station
Personal Weather Station
Location: Brighton, MI
Elevation: 897 ft
Nearby Weather Stations

Elev 897 ft 42.51 °N, 83.75 °W | Updated 3 minutes ago

Partly Cloudy
Partly Cloudy
19.1 °F
Feels Like 8 °F
N
10.3
Wind Variable Wind from West
Gusts 17.1 mph

Today
High -- | Low -- °F
--% Chance of Precip.
Yesterday
High -- | Low -- °F
Precip. -- in
Pressure 30.20 in
Visibility 10.0 miles
Clouds Scattered Clouds 2900 ft
Scattered Clouds 3700 ft
Mostly Cloudy 4600 ft
Windchill 8 °F
Dew Point 2 °F
Humidity 47%
Rainfall 0.00 in
Snow Depth Not available.
7:37 AM 6:01 PM
Waxing Crescent, 14% visible
METAR KOZW 112134Z AUTO 32006KT 10SM SCT029 SCT037 BKN046 M07/M15 A3020 RMK AO2 T10721153
Pressure 30.20 in
Visibility 10.0 miles
Clouds Scattered Clouds 2900 ft
Scattered Clouds 3700 ft
Mostly Cloudy 4600 ft
Windchill 8 °F
Dew Point 2 °F
Humidity 47%
Rainfall 0.00 in
Snow Depth Not available.
7:37 AM 6:01 PM
Waxing Crescent, 14% visible
METAR KOZW 112134Z AUTO 32006KT 10SM SCT029 SCT037 BKN046 M07/M15 A3020 RMK AO2 T10721153

10-Day Weather Forecast

Almanac

Astronomy

Feb. 11, 2016 Rise Set
Actual Time
Civil Twilight
Nautical Twilight
Astronomical Twilight
Moon
Length of Visible Light
Length of Day
Tomorrow will be .
, % of the Moon is Illuminated

Today's Extremes

State Highs State Lows

Community

WunderPhotos

Upload Photos

1,892,164 photos uploaded!

WunderBlog® & News

Nearby

Air Quality

  Air Quality AQ Index Pollutant
Not available.

Snow Depth

Station Depth Elevation

Earthquake Activity

City Distance Mag. Time & Date
Minimum magnitude displayed is 2.5.

Coastal Water Temperatures

Place Temperature

Stations

Nearby Weather Stations

Station Location Temp. Windchill Dew Point Humidity Wind Precip. Elev Updated Type
                   

Watches & Warnings

There are currently no watches in effect.